sensor_id;sensor_type;location;lat;lon;timestamp;P1;durP1;ratioP1;P2;durP2;ratioP2
20880;SDS011;10600;53.096;8.802;2022-08-21T00:00:33;5.90;;;3.72;;
20880;SDS011;10600;53.096;8.802;2022-08-21T00:01:33;9.02;;;4.38;;
20880;SDS011;10600;53.096;8.802;2022-08-21T00:02:34;9.25;;;3.30;;
20880;SDS011;10600;53.096;8.802;2022-08-21T00:03:35;11.07;;;3.17;;
20880;SDS011;10600;53.096;8.802;2022-08-21T00:04:36;7.00;;;3.72;;
20880;SDS011;10600;53.096;8.802;2022-08-21T00:05:38;15.65;;;6.63;;
20880;SDS011;10600;53.096;8.802;2022-08-21T00:06:42;10.70;;;4.47;;
20880;SDS011;10600;53.096;8.802;2022-08-21T00:07:43;14.73;;;7.18;;
20880;SDS011;10600;53.096;8.802;2022-08-21T00:08:44;23.70;;;10.60;;
20880;SDS011;10600;53.096;8.802;2022-08-21T00:09:45;12.95;;;6.25;;
20880;SDS011;10600;53.096;8.802;2022-08-21T00:10:46;16.15;;;5.72;;
20880;SDS011;10600;53.096;8.802;2022-08-21T00:11:47;19.02;;;8.88;;
20880;SDS011;10600;53.096;8.802;2022-08-21T00:12:48;11.77;;;5.53;;
20880;SDS011;10600;53.096;8.802;2022-08-21T00:13:49;13.05;;;5.38;;
20880;SDS011;10600;53.096;8.802;2022-08-21T00:14:50;13.35;;;5.35;;
20880;SDS011;10600;53.096;8.802;2022-08-21T00:15:51;12.25;;;5.30;;
20880;SDS011;10600;53.096;8.802;2022-08-21T00:16:52;8.50;;;3.67;;
20880;SDS011;10600;53.096;8.802;2022-08-21T00:17:53;10.02;;;3.90;;
20880;SDS011;10600;53.096;8.802;2022-08-21T00:18:54;14.38;;;4.78;;
20880;SDS011;10600;53.096;8.802;2022-08-21T00:19:55;7.70;;;3.33;;
20880;SDS011;10600;53.096;8.802;2022-08-21T00:20:55;12.80;;;4.18;;
20880;SDS011;10600;53.096;8.802;2022-08-21T00:21:56;11.75;;;4.90;;
20880;SDS011;10600;53.096;8.802;2022-08-21T00:22:57;9.73;;;3.85;;
20880;SDS011;10600;53.096;8.802;2022-08-21T00:23:58;14.07;;;5.18;;
20880;SDS011;10600;53.096;8.802;2022-08-21T00:24:59;28.63;;;13.38;;
20880;SDS011;10600;53.096;8.802;2022-08-21T00:25:59;13.05;;;6.05;;
20880;SDS011;10600;53.096;8.802;2022-08-21T00:27:00;10.73;;;5.00;;
20880;SDS011;10600;53.096;8.802;2022-08-21T00:28:01;19.60;;;8.38;;
20880;SDS011;10600;53.096;8.802;2022-08-21T00:29:02;14.20;;;6.28;;
20880;SDS011;10600;53.096;8.802;2022-08-21T00:30:04;13.93;;;6.68;;
20880;SDS011;10600;53.096;8.802;2022-08-21T00:31:06;12.57;;;5.30;;
20880;SDS011;10600;53.096;8.802;2022-08-21T00:32:07;9.80;;;3.47;;
20880;SDS011;10600;53.096;8.802;2022-08-21T00:33:08;14.35;;;5.88;;
20880;SDS011;10600;53.096;8.802;2022-08-21T00:34:09;11.52;;;4.75;;
20880;SDS011;10600;53.096;8.802;2022-08-21T00:35:13;9.50;;;3.28;;
20880;SDS011;10600;53.096;8.802;2022-08-21T00:36:15;9.88;;;4.00;;
20880;SDS011;10600;53.096;8.802;2022-08-21T00:37:16;15.05;;;7.72;;
20880;SDS011;10600;53.096;8.802;2022-08-21T00:38:18;8.02;;;3.85;;
20880;SDS011;10600;53.096;8.802;2022-08-21T00:39:19;15.93;;;5.93;;
20880;SDS011;10600;53.096;8.802;2022-08-21T00:40:23;12.18;;;4.35;;
20880;SDS011;10600;53.096;8.802;2022-08-21T00:41:27;8.30;;;3.95;;
20880;SDS011;10600;53.096;8.802;2022-08-21T00:42:28;8.85;;;3.65;;
20880;SDS011;10600;53.096;8.802;2022-08-21T00:43:31;12.68;;;5.32;;
20880;SDS011;10600;53.096;8.802;2022-08-21T00:44:34;16.30;;;8.90;;
20880;SDS011;10600;53.096;8.802;2022-08-21T00:45:36;24.60;;;12.80;;
20880;SDS011;10600;53.096;8.802;2022-08-21T00:46:41;13.38;;;6.07;;
20880;SDS011;10600;53.096;8.802;2022-08-21T00:47:42;16.63;;;8.05;;
20880;SDS011;10600;53.096;8.802;2022-08-21T00:48:43;28.73;;;16.55;;
20880;SDS011;10600;53.096;8.802;2022-08-21T00:49:44;12.13;;;6.32;;
20880;SDS011;10600;53.096;8.802;2022-08-21T00:50:50;12.48;;;5.55;;
20880;SDS011;10600;53.096;8.802;2022-08-21T00:52:00;9.82;;;3.97;;
20880;SDS011;10600;53.096;8.802;2022-08-21T00:53:02;12.60;;;6.60;;
20880;SDS011;10600;53.096;8.802;2022-08-21T00:54:05;11.93;;;4.07;;
20880;SDS011;10600;53.096;8.802;2022-08-21T00:55:08;9.02;;;3.55;;
20880;SDS011;10600;53.096;8.802;2022-08-21T00:56:11;12.55;;;5.00;;
20880;SDS011;10600;53.096;8.802;2022-08-21T00:57:17;6.68;;;3.78;;
20880;SDS011;10600;53.096;8.802;2022-08-21T00:58:22;8.85;;;3.53;;
20880;SDS011;10600;53.096;8.802;2022-08-21T00:59:23;6.15;;;3.28;;
20880;SDS011;10600;53.096;8.802;2022-08-21T01:00:28;13.23;;;5.30;;
20880;SDS011;10600;53.096;8.802;2022-08-21T01:01:33;10.70;;;4.32;;
20880;SDS011;10600;53.096;8.802;2022-08-21T01:02:34;7.85;;;3.22;;
20880;SDS011;10600;53.096;8.802;2022-08-21T01:03:35;8.45;;;3.90;;
20880;SDS011;10600;53.096;8.802;2022-08-21T01:04:37;8.30;;;3.65;;
20880;SDS011;10600;53.096;8.802;2022-08-21T01:05:38;16.23;;;7.60;;
20880;SDS011;10600;53.096;8.802;2022-08-21T01:06:39;12.13;;;3.70;;
20880;SDS011;10600;53.096;8.802;2022-08-21T01:07:40;7.10;;;4.00;;
20880;SDS011;10600;53.096;8.802;2022-08-21T01:08:41;7.13;;;3.35;;
20880;SDS011;10600;53.096;8.802;2022-08-21T01:09:43;7.88;;;3.85;;
20880;SDS011;10600;53.096;8.802;2022-08-21T01:10:46;5.65;;;3.25;;
20880;SDS011;10600;53.096;8.802;2022-08-21T01:11:48;9.98;;;4.43;;
20880;SDS011;10600;53.096;8.802;2022-08-21T01:12:50;10.38;;;4.82;;
20880;SDS011;10600;53.096;8.802;2022-08-21T01:13:52;8.40;;;3.40;;
20880;SDS011;10600;53.096;8.802;2022-08-21T01:14:53;11.02;;;5.78;;
20880;SDS011;10600;53.096;8.802;2022-08-21T01:15:54;11.48;;;4.32;;
20880;SDS011;10600;53.096;8.802;2022-08-21T01:16:59;13.27;;;4.13;;
20880;SDS011;10600;53.096;8.802;2022-08-21T01:18:03;9.60;;;3.10;;
20880;SDS011;10600;53.096;8.802;2022-08-21T01:19:07;11.70;;;4.60;;
20880;SDS011;10600;53.096;8.802;2022-08-21T01:20:09;18.23;;;6.88;;
20880;SDS011;10600;53.096;8.802;2022-08-21T01:21:13;9.00;;;2.67;;
20880;SDS011;10600;53.096;8.802;2022-08-21T01:22:23;8.40;;;2.80;;
20880;SDS011;10600;53.096;8.802;2022-08-21T01:23:23;9.88;;;2.83;;
20880;SDS011;10600;53.096;8.802;2022-08-21T01:24:24;10.45;;;2.90;;
20880;SDS011;10600;53.096;8.802;2022-08-21T01:25:26;6.70;;;2.50;;
20880;SDS011;10600;53.096;8.802;2022-08-21T01:26:28;11.15;;;5.20;;
20880;SDS011;10600;53.096;8.802;2022-08-21T01:27:31;7.15;;;3.17;;
20880;SDS011;10600;53.096;8.802;2022-08-21T01:28:44;9.82;;;4.28;;
20880;SDS011;10600;53.096;8.802;2022-08-21T01:31:02;12.23;;;4.40;;
20880;SDS011;10600;53.096;8.802;2022-08-21T01:32:09;14.43;;;7.13;;
20880;SDS011;10600;53.096;8.802;2022-08-21T01:33:12;15.05;;;3.63;;
20880;SDS011;10600;53.096;8.802;2022-08-21T01:34:13;6.97;;;3.15;;
20880;SDS011;10600;53.096;8.802;2022-08-21T01:35:16;5.78;;;2.95;;
20880;SDS011;10600;53.096;8.802;2022-08-21T01:36:17;14.15;;;4.88;;
20880;SDS011;10600;53.096;8.802;2022-08-21T01:37:18;7.93;;;2.95;;
20880;SDS011;10600;53.096;8.802;2022-08-21T01:38:20;9.30;;;3.75;;
20880;SDS011;10600;53.096;8.802;2022-08-21T01:39:21;12.57;;;5.30;;
20880;SDS011;10600;53.096;8.802;2022-08-21T01:40:22;6.35;;;3.00;;
20880;SDS011;10600;53.096;8.802;2022-08-21T01:41:23;10.52;;;2.70;;
20880;SDS011;10600;53.096;8.802;2022-08-21T01:42:24;9.30;;;3.22;;
20880;SDS011;10600;53.096;8.802;2022-08-21T01:43:25;6.70;;;3.38;;
20880;SDS011;10600;53.096;8.802;2022-08-21T01:44:26;8.10;;;3.03;;
20880;SDS011;10600;53.096;8.802;2022-08-21T01:45:30;6.38;;;2.65;;
20880;SDS011;10600;53.096;8.802;2022-08-21T01:46:31;7.00;;;2.42;;
20880;SDS011;10600;53.096;8.802;2022-08-21T01:47:32;6.70;;;3.00;;
20880;SDS011;10600;53.096;8.802;2022-08-21T01:48:33;12.30;;;2.90;;
20880;SDS011;10600;53.096;8.802;2022-08-21T01:49:34;5.78;;;2.50;;
20880;SDS011;10600;53.096;8.802;2022-08-21T01:50:36;8.52;;;2.75;;
20880;SDS011;10600;53.096;8.802;2022-08-21T01:51:37;7.28;;;2.78;;
20880;SDS011;10600;53.096;8.802;2022-08-21T01:52:38;9.18;;;3.50;;
20880;SDS011;10600;53.096;8.802;2022-08-21T01:53:39;9.32;;;3.17;;
20880;SDS011;10600;53.096;8.802;2022-08-21T01:54:40;6.72;;;2.60;;
20880;SDS011;10600;53.096;8.802;2022-08-21T01:55:42;9.07;;;2.70;;
20880;SDS011;10600;53.096;8.802;2022-08-21T01:56:45;5.78;;;2.60;;
20880;SDS011;10600;53.096;8.802;2022-08-21T01:57:47;4.68;;;2.65;;
20880;SDS011;10600;53.096;8.802;2022-08-21T01:58:48;7.82;;;2.92;;
20880;SDS011;10600;53.096;8.802;2022-08-21T01:59:49;7.88;;;3.10;;
20880;SDS011;10600;53.096;8.802;2022-08-21T02:00:49;7.88;;;3.15;;
20880;SDS011;10600;53.096;8.802;2022-08-21T02:01:50;6.07;;;2.38;;
20880;SDS011;10600;53.096;8.802;2022-08-21T02:02:53;8.88;;;3.13;;
20880;SDS011;10600;53.096;8.802;2022-08-21T02:03:55;11.38;;;4.07;;
20880;SDS011;10600;53.096;8.802;2022-08-21T02:04:56;7.05;;;2.83;;
20880;SDS011;10600;53.096;8.802;2022-08-21T02:05:57;8.07;;;3.15;;
20880;SDS011;10600;53.096;8.802;2022-08-21T02:06:58;7.93;;;3.28;;
20880;SDS011;10600;53.096;8.802;2022-08-21T02:08:00;6.07;;;2.80;;
20880;SDS011;10600;53.096;8.802;2022-08-21T02:09:05;7.63;;;3.55;;
20880;SDS011;10600;53.096;8.802;2022-08-21T02:10:08;10.20;;;3.00;;
20880;SDS011;10600;53.096;8.802;2022-08-21T02:11:10;8.57;;;3.25;;
20880;SDS011;10600;53.096;8.802;2022-08-21T02:12:11;9.35;;;2.85;;
20880;SDS011;10600;53.096;8.802;2022-08-21T02:13:12;5.95;;;2.75;;
20880;SDS011;10600;53.096;8.802;2022-08-21T02:14:13;8.88;;;2.75;;
20880;SDS011;10600;53.096;8.802;2022-08-21T02:15:15;9.30;;;2.60;;
20880;SDS011;10600;53.096;8.802;2022-08-21T02:16:16;7.00;;;3.20;;
20880;SDS011;10600;53.096;8.802;2022-08-21T02:17:17;9.35;;;2.70;;
20880;SDS011;10600;53.096;8.802;2022-08-21T02:18:17;5.60;;;2.30;;
20880;SDS011;10600;53.096;8.802;2022-08-21T02:19:18;7.35;;;2.83;;
20880;SDS011;10600;53.096;8.802;2022-08-21T02:20:30;10.38;;;3.03;;
20880;SDS011;10600;53.096;8.802;2022-08-21T02:21:32;6.93;;;2.78;;
20880;SDS011;10600;53.096;8.802;2022-08-21T02:22:33;7.38;;;3.10;;
20880;SDS011;10600;53.096;8.802;2022-08-21T02:23:34;6.40;;;2.70;;
20880;SDS011;10600;53.096;8.802;2022-08-21T02:24:36;5.50;;;2.22;;
20880;SDS011;10600;53.096;8.802;2022-08-21T02:25:37;9.30;;;2.97;;
20880;SDS011;10600;53.096;8.802;2022-08-21T02:26:38;4.82;;;2.67;;
20880;SDS011;10600;53.096;8.802;2022-08-21T02:27:43;6.05;;;2.80;;
20880;SDS011;10600;53.096;8.802;2022-08-21T02:28:46;8.20;;;3.00;;
20880;SDS011;10600;53.096;8.802;2022-08-21T02:29:46;11.05;;;2.78;;
20880;SDS011;10600;53.096;8.802;2022-08-21T02:30:47;6.40;;;2.72;;
20880;SDS011;10600;53.096;8.802;2022-08-21T02:31:48;7.68;;;2.40;;
20880;SDS011;10600;53.096;8.802;2022-08-21T02:32:49;7.78;;;2.72;;
20880;SDS011;10600;53.096;8.802;2022-08-21T02:33:50;8.07;;;2.75;;
20880;SDS011;10600;53.096;8.802;2022-08-21T02:34:51;7.43;;;3.40;;
20880;SDS011;10600;53.096;8.802;2022-08-21T02:35:52;8.15;;;3.08;;
20880;SDS011;10600;53.096;8.802;2022-08-21T02:36:54;6.45;;;2.88;;
20880;SDS011;10600;53.096;8.802;2022-08-21T02:37:58;5.88;;;2.53;;
20880;SDS011;10600;53.096;8.802;2022-08-21T02:39:01;13.02;;;5.30;;
20880;SDS011;10600;53.096;8.802;2022-08-21T02:40:02;7.00;;;2.85;;
20880;SDS011;10600;53.096;8.802;2022-08-21T02:41:04;6.82;;;2.65;;
20880;SDS011;10600;53.096;8.802;2022-08-21T02:42:07;7.85;;;2.78;;
20880;SDS011;10600;53.096;8.802;2022-08-21T02:43:08;6.45;;;2.90;;
20880;SDS011;10600;53.096;8.802;2022-08-21T02:44:08;5.53;;;3.25;;
20880;SDS011;10600;53.096;8.802;2022-08-21T02:45:10;7.97;;;2.90;;
20880;SDS011;10600;53.096;8.802;2022-08-21T02:46:21;7.88;;;3.10;;
20880;SDS011;10600;53.096;8.802;2022-08-21T02:47:22;5.50;;;2.38;;
20880;SDS011;10600;53.096;8.802;2022-08-21T02:48:24;6.13;;;2.35;;
20880;SDS011;10600;53.096;8.802;2022-08-21T02:49:27;8.93;;;3.08;;
20880;SDS011;10600;53.096;8.802;2022-08-21T02:50:29;6.60;;;2.80;;
20880;SDS011;10600;53.096;8.802;2022-08-21T02:51:33;15.57;;;7.15;;
20880;SDS011;10600;53.096;8.802;2022-08-21T02:52:34;9.68;;;3.70;;
20880;SDS011;10600;53.096;8.802;2022-08-21T02:53:34;4.60;;;2.63;;
20880;SDS011;10600;53.096;8.802;2022-08-21T02:54:36;6.50;;;2.33;;
20880;SDS011;10600;53.096;8.802;2022-08-21T02:55:37;5.05;;;2.70;;
20880;SDS011;10600;53.096;8.802;2022-08-21T02:56:38;5.80;;;2.67;;
20880;SDS011;10600;53.096;8.802;2022-08-21T02:57:38;5.18;;;2.95;;
20880;SDS011;10600;53.096;8.802;2022-08-21T02:58:41;9.48;;;2.80;;
20880;SDS011;10600;53.096;8.802;2022-08-21T02:59:43;7.65;;;3.10;;
20880;SDS011;10600;53.096;8.802;2022-08-21T03:00:44;8.60;;;2.67;;
20880;SDS011;10600;53.096;8.802;2022-08-21T03:01:45;8.02;;;2.72;;
20880;SDS011;10600;53.096;8.802;2022-08-21T03:02:46;9.38;;;2.70;;
20880;SDS011;10600;53.096;8.802;2022-08-21T03:03:47;7.63;;;3.13;;
20880;SDS011;10600;53.096;8.802;2022-08-21T03:04:51;5.40;;;2.53;;
20880;SDS011;10600;53.096;8.802;2022-08-21T03:05:52;8.32;;;2.85;;
20880;SDS011;10600;53.096;8.802;2022-08-21T03:06:53;7.28;;;2.80;;
20880;SDS011;10600;53.096;8.802;2022-08-21T03:07:54;6.50;;;2.78;;
20880;SDS011;10600;53.096;8.802;2022-08-21T03:08:55;7.65;;;2.70;;
20880;SDS011;10600;53.096;8.802;2022-08-21T03:09:57;7.68;;;2.55;;
20880;SDS011;10600;53.096;8.802;2022-08-21T03:10:58;8.10;;;2.72;;
20880;SDS011;10600;53.096;8.802;2022-08-21T03:12:00;5.28;;;2.70;;
20880;SDS011;10600;53.096;8.802;2022-08-21T03:13:01;8.35;;;2.60;;
20880;SDS011;10600;53.096;8.802;2022-08-21T03:14:03;7.47;;;2.83;;
20880;SDS011;10600;53.096;8.802;2022-08-21T03:15:06;10.25;;;2.83;;
20880;SDS011;10600;53.096;8.802;2022-08-21T03:16:09;8.10;;;2.63;;
20880;SDS011;10600;53.096;8.802;2022-08-21T03:17:10;6.38;;;2.60;;
20880;SDS011;10600;53.096;8.802;2022-08-21T03:18:11;5.70;;;2.50;;
20880;SDS011;10600;53.096;8.802;2022-08-21T03:19:12;5.93;;;2.33;;
20880;SDS011;10600;53.096;8.802;2022-08-21T03:20:14;10.10;;;2.58;;
20880;SDS011;10600;53.096;8.802;2022-08-21T03:21:17;6.22;;;2.55;;
20880;SDS011;10600;53.096;8.802;2022-08-21T03:22:18;7.80;;;2.53;;
20880;SDS011;10600;53.096;8.802;2022-08-21T03:23:19;8.32;;;2.63;;
20880;SDS011;10600;53.096;8.802;2022-08-21T03:24:20;8.50;;;2.30;;
20880;SDS011;10600;53.096;8.802;2022-08-21T03:25:21;5.47;;;2.10;;
20880;SDS011;10600;53.096;8.802;2022-08-21T03:26:23;7.00;;;2.33;;
20880;SDS011;10600;53.096;8.802;2022-08-21T03:27:24;7.00;;;2.20;;
20880;SDS011;10600;53.096;8.802;2022-08-21T03:28:26;3.53;;;2.60;;
20880;SDS011;10600;53.096;8.802;2022-08-21T03:29:27;7.00;;;2.75;;
20880;SDS011;10600;53.096;8.802;2022-08-21T03:30:28;3.50;;;1.98;;
20880;SDS011;10600;53.096;8.802;2022-08-21T03:31:31;7.88;;;2.70;;
20880;SDS011;10600;53.096;8.802;2022-08-21T03:32:31;8.68;;;2.70;;
20880;SDS011;10600;53.096;8.802;2022-08-21T03:33:32;7.22;;;2.55;;
20880;SDS011;10600;53.096;8.802;2022-08-21T03:34:33;5.13;;;2.40;;
20880;SDS011;10600;53.096;8.802;2022-08-21T03:35:33;7.88;;;3.08;;
20880;SDS011;10600;53.096;8.802;2022-08-21T03:36:34;8.98;;;2.85;;
20880;SDS011;10600;53.096;8.802;2022-08-21T03:37:35;6.93;;;2.80;;
20880;SDS011;10600;53.096;8.802;2022-08-21T03:38:36;6.90;;;2.50;;
20880;SDS011;10600;53.096;8.802;2022-08-21T03:39:37;7.68;;;2.50;;
20880;SDS011;10600;53.096;8.802;2022-08-21T03:40:38;7.20;;;3.13;;
20880;SDS011;10600;53.096;8.802;2022-08-21T03:41:39;6.68;;;2.88;;
20880;SDS011;10600;53.096;8.802;2022-08-21T03:42:39;7.68;;;2.75;;
20880;SDS011;10600;53.096;8.802;2022-08-21T03:43:40;5.53;;;2.50;;
20880;SDS011;10600;53.096;8.802;2022-08-21T03:44:41;9.75;;;2.97;;
20880;SDS011;10600;53.096;8.802;2022-08-21T03:45:46;5.85;;;2.47;;
20880;SDS011;10600;53.096;8.802;2022-08-21T03:46:59;7.95;;;2.75;;
20880;SDS011;10600;53.096;8.802;2022-08-21T03:48:01;4.95;;;2.40;;
20880;SDS011;10600;53.096;8.802;2022-08-21T03:49:03;9.60;;;2.72;;
20880;SDS011;10600;53.096;8.802;2022-08-21T03:50:04;8.68;;;2.90;;
20880;SDS011;10600;53.096;8.802;2022-08-21T03:51:05;8.68;;;3.70;;
20880;SDS011;10600;53.096;8.802;2022-08-21T03:52:06;6.90;;;2.40;;
20880;SDS011;10600;53.096;8.802;2022-08-21T03:53:11;6.43;;;2.53;;
20880;SDS011;10600;53.096;8.802;2022-08-21T03:54:13;11.43;;;3.22;;
20880;SDS011;10600;53.096;8.802;2022-08-21T03:55:13;8.13;;;2.70;;
20880;SDS011;10600;53.096;8.802;2022-08-21T03:56:14;6.60;;;2.78;;
20880;SDS011;10600;53.096;8.802;2022-08-21T03:57:16;5.72;;;2.70;;
20880;SDS011;10600;53.096;8.802;2022-08-21T03:58:17;5.25;;;2.30;;
20880;SDS011;10600;53.096;8.802;2022-08-21T03:59:23;6.72;;;2.83;;
20880;SDS011;10600;53.096;8.802;2022-08-21T04:00:24;5.60;;;2.90;;
20880;SDS011;10600;53.096;8.802;2022-08-21T04:01:24;5.57;;;2.20;;
20880;SDS011;10600;53.096;8.802;2022-08-21T04:02:25;6.72;;;3.00;;
20880;SDS011;10600;53.096;8.802;2022-08-21T04:03:27;6.30;;;2.80;;
20880;SDS011;10600;53.096;8.802;2022-08-21T04:04:28;6.80;;;2.55;;
20880;SDS011;10600;53.096;8.802;2022-08-21T04:05:29;7.03;;;2.58;;
20880;SDS011;10600;53.096;8.802;2022-08-21T04:06:30;9.85;;;3.28;;
20880;SDS011;10600;53.096;8.802;2022-08-21T04:07:31;6.80;;;2.67;;
20880;SDS011;10600;53.096;8.802;2022-08-21T04:08:32;9.68;;;2.90;;
20880;SDS011;10600;53.096;8.802;2022-08-21T04:09:33;8.75;;;2.75;;
20880;SDS011;10600;53.096;8.802;2022-08-21T04:10:35;8.85;;;2.78;;
20880;SDS011;10600;53.096;8.802;2022-08-21T04:11:37;8.35;;;2.72;;
20880;SDS011;10600;53.096;8.802;2022-08-21T04:12:38;8.82;;;2.67;;
20880;SDS011;10600;53.096;8.802;2022-08-21T04:13:38;8.40;;;2.65;;
20880;SDS011;10600;53.096;8.802;2022-08-21T04:14:40;7.80;;;2.60;;
20880;SDS011;10600;53.096;8.802;2022-08-21T04:15:41;5.78;;;2.67;;
20880;SDS011;10600;53.096;8.802;2022-08-21T04:16:42;6.25;;;2.45;;
20880;SDS011;10600;53.096;8.802;2022-08-21T04:17:43;9.57;;;3.15;;
20880;SDS011;10600;53.096;8.802;2022-08-21T04:18:44;7.10;;;2.75;;
20880;SDS011;10600;53.096;8.802;2022-08-21T04:19:45;8.43;;;3.35;;
20880;SDS011;10600;53.096;8.802;2022-08-21T04:20:46;5.10;;;2.40;;
20880;SDS011;10600;53.096;8.802;2022-08-21T04:21:49;7.07;;;2.95;;
20880;SDS011;10600;53.096;8.802;2022-08-21T04:22:50;8.60;;;3.00;;
20880;SDS011;10600;53.096;8.802;2022-08-21T04:23:53;7.72;;;2.83;;
20880;SDS011;10600;53.096;8.802;2022-08-21T04:24:55;6.60;;;3.10;;
20880;SDS011;10600;53.096;8.802;2022-08-21T04:25:55;10.88;;;3.08;;
20880;SDS011;10600;53.096;8.802;2022-08-21T04:26:57;10.98;;;3.25;;
20880;SDS011;10600;53.096;8.802;2022-08-21T04:27:58;8.05;;;2.92;;
20880;SDS011;10600;53.096;8.802;2022-08-21T04:28:58;7.78;;;2.95;;
20880;SDS011;10600;53.096;8.802;2022-08-21T04:29:59;7.32;;;2.97;;
20880;SDS011;10600;53.096;8.802;2022-08-21T04:31:00;3.97;;;3.10;;
20880;SDS011;10600;53.096;8.802;2022-08-21T04:32:01;8.30;;;2.90;;
20880;SDS011;10600;53.096;8.802;2022-08-21T04:33:02;9.80;;;3.38;;
20880;SDS011;10600;53.096;8.802;2022-08-21T04:34:04;7.03;;;2.83;;
20880;SDS011;10600;53.096;8.802;2022-08-21T04:35:06;9.27;;;3.58;;
20880;SDS011;10600;53.096;8.802;2022-08-21T04:36:09;5.60;;;3.33;;
20880;SDS011;10600;53.096;8.802;2022-08-21T04:37:10;9.30;;;3.42;;
20880;SDS011;10600;53.096;8.802;2022-08-21T04:38:10;7.32;;;3.00;;
20880;SDS011;10600;53.096;8.802;2022-08-21T04:39:11;16.02;;;4.80;;
20880;SDS011;10600;53.096;8.802;2022-08-21T04:40:13;11.50;;;3.33;;
20880;SDS011;10600;53.096;8.802;2022-08-21T04:41:16;10.60;;;3.50;;
20880;SDS011;10600;53.096;8.802;2022-08-21T04:42:17;8.30;;;3.45;;
20880;SDS011;10600;53.096;8.802;2022-08-21T04:43:18;9.35;;;3.60;;
20880;SDS011;10600;53.096;8.802;2022-08-21T04:44:20;8.43;;;3.70;;
20880;SDS011;10600;53.096;8.802;2022-08-21T04:45:30;7.85;;;3.70;;
20880;SDS011;10600;53.096;8.802;2022-08-21T04:46:39;8.35;;;3.20;;
20880;SDS011;10600;53.096;8.802;2022-08-21T04:47:40;7.47;;;3.38;;
20880;SDS011;10600;53.096;8.802;2022-08-21T04:48:40;10.38;;;3.30;;
20880;SDS011;10600;53.096;8.802;2022-08-21T04:49:41;9.05;;;3.65;;
20880;SDS011;10600;53.096;8.802;2022-08-21T04:50:45;7.32;;;3.83;;
20880;SDS011;10600;53.096;8.802;2022-08-21T04:51:54;5.95;;;3.80;;
20880;SDS011;10600;53.096;8.802;2022-08-21T04:52:55;12.55;;;4.15;;
20880;SDS011;10600;53.096;8.802;2022-08-21T04:54:07;6.63;;;3.17;;
20880;SDS011;10600;53.096;8.802;2022-08-21T04:55:08;5.35;;;3.40;;
20880;SDS011;10600;53.096;8.802;2022-08-21T04:56:12;9.80;;;3.47;;
20880;SDS011;10600;53.096;8.802;2022-08-21T04:57:19;8.32;;;3.80;;
20880;SDS011;10600;53.096;8.802;2022-08-21T04:58:20;9.80;;;4.28;;
20880;SDS011;10600;53.096;8.802;2022-08-21T04:59:29;12.20;;;4.25;;
20880;SDS011;10600;53.096;8.802;2022-08-21T05:00:43;5.72;;;4.13;;
20880;SDS011;10600;53.096;8.802;2022-08-21T05:01:45;7.72;;;3.17;;
20880;SDS011;10600;53.096;8.802;2022-08-21T05:02:47;8.63;;;4.05;;
20880;SDS011;10600;53.096;8.802;2022-08-21T05:03:49;7.13;;;3.85;;
20880;SDS011;10600;53.096;8.802;2022-08-21T05:04:53;12.13;;;3.75;;
20880;SDS011;10600;53.096;8.802;2022-08-21T05:05:55;12.00;;;4.10;;
20880;SDS011;10600;53.096;8.802;2022-08-21T05:06:57;7.28;;;3.45;;
20880;SDS011;10600;53.096;8.802;2022-08-21T05:08:02;10.13;;;4.90;;
20880;SDS011;10600;53.096;8.802;2022-08-21T05:09:04;8.70;;;3.83;;
20880;SDS011;10600;53.096;8.802;2022-08-21T05:10:05;9.40;;;3.92;;
20880;SDS011;10600;53.096;8.802;2022-08-21T05:11:08;11.30;;;3.55;;
20880;SDS011;10600;53.096;8.802;2022-08-21T05:12:10;12.48;;;4.40;;
20880;SDS011;10600;53.096;8.802;2022-08-21T05:13:11;8.23;;;3.60;;
20880;SDS011;10600;53.096;8.802;2022-08-21T05:14:13;8.82;;;3.72;;
20880;SDS011;10600;53.096;8.802;2022-08-21T05:15:14;9.38;;;3.60;;
20880;SDS011;10600;53.096;8.802;2022-08-21T05:16:17;12.00;;;4.25;;
20880;SDS011;10600;53.096;8.802;2022-08-21T05:17:18;14.57;;;5.15;;
20880;SDS011;10600;53.096;8.802;2022-08-21T05:18:18;7.22;;;3.65;;
20880;SDS011;10600;53.096;8.802;2022-08-21T05:19:19;9.57;;;3.90;;
20880;SDS011;10600;53.096;8.802;2022-08-21T05:20:20;7.70;;;3.60;;
20880;SDS011;10600;53.096;8.802;2022-08-21T05:21:20;10.10;;;3.97;;
20880;SDS011;10600;53.096;8.802;2022-08-21T05:22:22;8.43;;;3.95;;
20880;SDS011;10600;53.096;8.802;2022-08-21T05:23:24;10.68;;;4.13;;
20880;SDS011;10600;53.096;8.802;2022-08-21T05:24:25;8.90;;;3.90;;
20880;SDS011;10600;53.096;8.802;2022-08-21T05:25:27;10.82;;;4.40;;
20880;SDS011;10600;53.096;8.802;2022-08-21T05:26:28;8.10;;;4.40;;
20880;SDS011;10600;53.096;8.802;2022-08-21T05:27:29;12.25;;;4.57;;
20880;SDS011;10600;53.096;8.802;2022-08-21T05:28:31;9.35;;;4.43;;
20880;SDS011;10600;53.096;8.802;2022-08-21T05:29:31;11.35;;;4.70;;
20880;SDS011;10600;53.096;8.802;2022-08-21T05:30:32;12.40;;;5.20;;
20880;SDS011;10600;53.096;8.802;2022-08-21T05:31:34;11.82;;;5.43;;
20880;SDS011;10600;53.096;8.802;2022-08-21T05:32:35;11.52;;;5.80;;
20880;SDS011;10600;53.096;8.802;2022-08-21T05:33:36;10.52;;;4.80;;
20880;SDS011;10600;53.096;8.802;2022-08-21T05:34:36;9.27;;;4.70;;
20880;SDS011;10600;53.096;8.802;2022-08-21T05:35:38;11.68;;;4.72;;
20880;SDS011;10600;53.096;8.802;2022-08-21T05:36:39;7.45;;;5.13;;
20880;SDS011;10600;53.096;8.802;2022-08-21T05:37:40;11.15;;;5.45;;
20880;SDS011;10600;53.096;8.802;2022-08-21T05:38:40;10.63;;;5.03;;
20880;SDS011;10600;53.096;8.802;2022-08-21T05:39:41;9.85;;;5.05;;
20880;SDS011;10600;53.096;8.802;2022-08-21T05:40:42;11.02;;;5.35;;
20880;SDS011;10600;53.096;8.802;2022-08-21T05:41:43;13.38;;;5.38;;
20880;SDS011;10600;53.096;8.802;2022-08-21T05:42:44;11.63;;;5.10;;
20880;SDS011;10600;53.096;8.802;2022-08-21T05:43:44;12.63;;;5.43;;
20880;SDS011;10600;53.096;8.802;2022-08-21T05:44:45;11.43;;;5.65;;
20880;SDS011;10600;53.096;8.802;2022-08-21T05:45:47;12.55;;;6.25;;
20880;SDS011;10600;53.096;8.802;2022-08-21T05:46:51;10.02;;;5.55;;
20880;SDS011;10600;53.096;8.802;2022-08-21T05:47:56;9.35;;;5.72;;
20880;SDS011;10600;53.096;8.802;2022-08-21T05:48:57;11.90;;;5.70;;
20880;SDS011;10600;53.096;8.802;2022-08-21T05:49:58;12.50;;;5.80;;
20880;SDS011;10600;53.096;8.802;2022-08-21T05:51:03;14.90;;;5.90;;
20880;SDS011;10600;53.096;8.802;2022-08-21T05:52:08;9.57;;;5.85;;
20880;SDS011;10600;53.096;8.802;2022-08-21T05:53:09;11.57;;;5.78;;
20880;SDS011;10600;53.096;8.802;2022-08-21T05:54:11;10.85;;;6.03;;
20880;SDS011;10600;53.096;8.802;2022-08-21T05:55:11;15.63;;;6.45;;
20880;SDS011;10600;53.096;8.802;2022-08-21T05:56:15;8.80;;;6.25;;
20880;SDS011;10600;53.096;8.802;2022-08-21T05:57:16;19.08;;;6.75;;
20880;SDS011;10600;53.096;8.802;2022-08-21T05:58:20;10.93;;;7.07;;
20880;SDS011;10600;53.096;8.802;2022-08-21T05:59:22;11.43;;;6.82;;
20880;SDS011;10600;53.096;8.802;2022-08-21T06:00:23;15.48;;;6.50;;
20880;SDS011;10600;53.096;8.802;2022-08-21T06:01:24;13.95;;;6.80;;
20880;SDS011;10600;53.096;8.802;2022-08-21T06:02:25;12.20;;;7.93;;
20880;SDS011;10600;53.096;8.802;2022-08-21T06:03:27;11.25;;;6.40;;
20880;SDS011;10600;53.096;8.802;2022-08-21T06:04:30;11.68;;;7.70;;
20880;SDS011;10600;53.096;8.802;2022-08-21T06:05:34;12.70;;;6.47;;
20880;SDS011;10600;53.096;8.802;2022-08-21T06:06:35;14.57;;;7.22;;
20880;SDS011;10600;53.096;8.802;2022-08-21T06:07:36;13.38;;;6.60;;
20880;SDS011;10600;53.096;8.802;2022-08-21T06:08:36;15.20;;;7.72;;
20880;SDS011;10600;53.096;8.802;2022-08-21T06:09:37;9.23;;;7.10;;
20880;SDS011;10600;53.096;8.802;2022-08-21T06:10:38;16.40;;;7.38;;
20880;SDS011;10600;53.096;8.802;2022-08-21T06:11:39;12.98;;;7.53;;
20880;SDS011;10600;53.096;8.802;2022-08-21T06:12:40;12.63;;;7.22;;